sensor_id;sensor_type;location;lat;lon;timestamp;pressure;altitude;pressure_sealevel;temperature;humidity
70248;BME280;57641;51.416;5.506;2022-07-17T00:01:37;102737.09;;;21.52;43.32
70248;BME280;57641;51.416;5.506;2022-07-17T00:04:03;102732.00;;;21.48;43.90
70248;BME280;57641;51.416;5.506;2022-07-17T00:06:28;102722.91;;;21.41;43.87
70248;BME280;57641;51.416;5.506;2022-07-17T00:08:54;102735.34;;;21.36;43.94
70248;BME280;57641;51.416;5.506;2022-07-17T00:11:20;102734.81;;;21.32;44.02
70248;BME280;57641;51.416;5.506;2022-07-17T00:13:45;102737.06;;;21.29;44.22
70248;BME280;57641;51.416;5.506;2022-07-17T00:16:10;102729.63;;;21.23;44.57
70248;BME280;57641;51.416;5.506;2022-07-17T00:18:36;102730.00;;;21.20;44.51
70248;BME280;57641;51.416;5.506;2022-07-17T00:21:02;102735.59;;;21.18;44.45
70248;BME280;57641;51.416;5.506;2022-07-17T00:23:27;102737.63;;;21.16;44.68
70248;BME280;57641;51.416;5.506;2022-07-17T00:25:53;102739.50;;;21.16;44.55
70248;BME280;57641;51.416;5.506;2022-07-17T00:28:18;102740.19;;;21.10;44.74
70248;BME280;57641;51.416;5.506;2022-07-17T00:30:43;102739.84;;;21.04;44.94
70248;BME280;57641;51.416;5.506;2022-07-17T00:33:09;102739.72;;;20.98;45.09
70248;BME280;57641;51.416;5.506;2022-07-17T00:35:34;102735.66;;;20.94;45.35
70248;BME280;57641;51.416;5.506;2022-07-17T00:38:00;102735.16;;;20.90;45.08
70248;BME280;57641;51.416;5.506;2022-07-17T00:40:25;102741.59;;;20.89;45.37
70248;BME280;57641;51.416;5.506;2022-07-17T00:42:51;102743.16;;;20.84;45.34
70248;BME280;57641;51.416;5.506;2022-07-17T00:45:18;102741.97;;;20.78;45.55
70248;BME280;57641;51.416;5.506;2022-07-17T00:48:05;102739.63;;;20.75;45.67
70248;BME280;57641;51.416;5.506;2022-07-17T00:50:36;102727.28;;;20.64;45.98
70248;BME280;57641;51.416;5.506;2022-07-17T00:53:03;102737.81;;;20.59;45.98
70248;BME280;57641;51.416;5.506;2022-07-17T00:55:29;102738.97;;;20.57;46.30
70248;BME280;57641;51.416;5.506;2022-07-17T00:57:58;102744.41;;;20.57;46.56
70248;BME280;57641;51.416;5.506;2022-07-17T01:00:25;102736.78;;;20.52;45.94
70248;BME280;57641;51.416;5.506;2022-07-17T01:02:53;102729.88;;;20.50;46.35
70248;BME280;57641;51.416;5.506;2022-07-17T01:05:19;102734.44;;;20.49;46.29
70248;BME280;57641;51.416;5.506;2022-07-17T01:07:46;102729.56;;;20.45;46.35
70248;BME280;57641;51.416;5.506;2022-07-17T01:10:14;102726.69;;;20.38;46.44
70248;BME280;57641;51.416;5.506;2022-07-17T01:12:45;102724.97;;;20.29;46.60
70248;BME280;57641;51.416;5.506;2022-07-17T01:15:13;102729.38;;;20.30;46.41
70248;BME280;57641;51.416;5.506;2022-07-17T01:17:40;102719.56;;;20.29;46.51
70248;BME280;57641;51.416;5.506;2022-07-17T01:20:08;102725.28;;;20.26;46.58
70248;BME280;57641;51.416;5.506;2022-07-17T01:22:44;102718.91;;;20.19;46.79
70248;BME280;57641;51.416;5.506;2022-07-17T01:25:10;102725.47;;;20.16;46.62
70248;BME280;57641;51.416;5.506;2022-07-17T01:27:36;102719.72;;;20.11;47.00
70248;BME280;57641;51.416;5.506;2022-07-17T01:30:06;102726.16;;;20.10;46.70
70248;BME280;57641;51.416;5.506;2022-07-17T01:32:36;102734.28;;;20.10;46.78
70248;BME280;57641;51.416;5.506;2022-07-17T01:35:10;102733.09;;;20.05;47.13
70248;BME280;57641;51.416;5.506;2022-07-17T01:37:37;102732.59;;;20.01;47.10
70248;BME280;57641;51.416;5.506;2022-07-17T01:40:04;102731.75;;;20.01;47.08
70248;BME280;57641;51.416;5.506;2022-07-17T01:42:30;102727.69;;;19.97;47.22
70248;BME280;57641;51.416;5.506;2022-07-17T01:45:00;102720.75;;;19.94;47.15
70248;BME280;57641;51.416;5.506;2022-07-17T01:47:25;102720.75;;;19.94;47.05
70248;BME280;57641;51.416;5.506;2022-07-17T01:49:55;102722.78;;;19.92;47.48
70248;BME280;57641;51.416;5.506;2022-07-17T01:52:22;102721.41;;;19.88;47.60
70248;BME280;57641;51.416;5.506;2022-07-17T01:54:49;102721.28;;;19.81;47.92
70248;BME280;57641;51.416;5.506;2022-07-17T01:57:15;102720.41;;;19.81;47.27
70248;BME280;57641;51.416;5.506;2022-07-17T01:59:40;102719.72;;;19.79;47.92
70248;BME280;57641;51.416;5.506;2022-07-17T02:02:07;102720.94;;;19.76;47.73
70248;BME280;57641;51.416;5.506;2022-07-17T02:04:34;102724.81;;;19.74;47.79
70248;BME280;57641;51.416;5.506;2022-07-17T02:07:01;102729.88;;;19.69;47.67
70248;BME280;57641;51.416;5.506;2022-07-17T02:09:27;102734.63;;;19.67;47.61
70248;BME280;57641;51.416;5.506;2022-07-17T02:11:53;102736.47;;;19.66;48.29
70248;BME280;57641;51.416;5.506;2022-07-17T02:14:18;102738.50;;;19.64;47.80
70248;BME280;57641;51.416;5.506;2022-07-17T02:16:44;102738.84;;;19.61;47.97
70248;BME280;57641;51.416;5.506;2022-07-17T02:19:10;102743.22;;;19.62;48.01
70248;BME280;57641;51.416;5.506;2022-07-17T02:21:36;102741.88;;;19.58;48.17
70248;BME280;57641;51.416;5.506;2022-07-17T02:24:02;102744.72;;;19.57;48.43
70248;BME280;57641;51.416;5.506;2022-07-17T02:26:28;102739.16;;;19.58;48.34
70248;BME280;57641;51.416;5.506;2022-07-17T02:28:53;102738.16;;;19.59;48.26
70248;BME280;57641;51.416;5.506;2022-07-17T02:31:19;102736.44;;;19.58;48.45
70248;BME280;57641;51.416;5.506;2022-07-17T02:33:45;102735.41;;;19.51;48.73
70248;BME280;57641;51.416;5.506;2022-07-17T02:36:10;102737.78;;;19.46;48.41
70248;BME280;57641;51.416;5.506;2022-07-17T02:38:36;102739.66;;;19.46;48.65
70248;BME280;57641;51.416;5.506;2022-07-17T02:41:01;102730.81;;;19.44;48.83
70248;BME280;57641;51.416;5.506;2022-07-17T02:43:26;102737.78;;;19.46;48.81
70248;BME280;57641;51.416;5.506;2022-07-17T02:45:52;102729.28;;;19.41;48.41
70248;BME280;57641;51.416;5.506;2022-07-17T02:48:17;102733.50;;;19.35;48.65
70248;BME280;57641;51.416;5.506;2022-07-17T02:50:43;102732.66;;;19.35;48.66
70248;BME280;57641;51.416;5.506;2022-07-17T02:53:08;102728.94;;;19.36;48.54
70248;BME280;57641;51.416;5.506;2022-07-17T02:55:34;102727.56;;;19.32;48.47
70248;BME280;57641;51.416;5.506;2022-07-17T02:57:59;102732.28;;;19.30;48.71
70248;BME280;57641;51.416;5.506;2022-07-17T03:00:25;102730.56;;;19.21;49.00
70248;BME280;57641;51.416;5.506;2022-07-17T03:02:52;102728.53;;;19.15;48.76
70248;BME280;57641;51.416;5.506;2022-07-17T03:05:18;102722.94;;;19.08;48.89
70248;BME280;57641;51.416;5.506;2022-07-17T03:07:44;102730.22;;;19.08;48.93
70248;BME280;57641;51.416;5.506;2022-07-17T03:10:10;102733.75;;;19.08;48.86
70248;BME280;57641;51.416;5.506;2022-07-17T03:12:36;102726.66;;;19.07;48.94
70248;BME280;57641;51.416;5.506;2022-07-17T03:15:02;102731.00;;;19.00;48.64
70248;BME280;57641;51.416;5.506;2022-07-17T03:17:28;102742.47;;;18.94;49.07
70248;BME280;57641;51.416;5.506;2022-07-17T03:19:53;102737.41;;;18.91;48.90
70248;BME280;57641;51.416;5.506;2022-07-17T03:22:18;102739.75;;;18.86;49.15
70248;BME280;57641;51.416;5.506;2022-07-17T03:24:44;102745.31;;;18.84;49.36
70248;BME280;57641;51.416;5.506;2022-07-17T03:27:09;102738.69;;;18.79;49.33
70248;BME280;57641;51.416;5.506;2022-07-17T03:29:35;102742.22;;;18.79;49.58
70248;BME280;57641;51.416;5.506;2022-07-17T03:32:01;102752.88;;;18.81;49.45
70248;BME280;57641;51.416;5.506;2022-07-17T03:34:26;102748.97;;;18.75;49.45
70248;BME280;57641;51.416;5.506;2022-07-17T03:36:51;102744.56;;;18.74;49.65
70248;BME280;57641;51.416;5.506;2022-07-17T03:39:17;102738.66;;;18.71;49.64
70248;BME280;57641;51.416;5.506;2022-07-17T03:41:43;102737.25;;;18.67;49.79
70248;BME280;57641;51.416;5.506;2022-07-17T03:44:09;102731.34;;;18.63;49.93
70248;BME280;57641;51.416;5.506;2022-07-17T03:46:34;102734.38;;;18.60;50.00
70248;BME280;57641;51.416;5.506;2022-07-17T03:49:00;102734.84;;;18.55;50.07
70248;BME280;57641;51.416;5.506;2022-07-17T03:51:26;102738.69;;;18.53;49.77
70248;BME280;57641;51.416;5.506;2022-07-17T03:53:51;102742.09;;;18.55;49.99
70248;BME280;57641;51.416;5.506;2022-07-17T03:56:17;102740.53;;;18.52;50.01
70248;BME280;57641;51.416;5.506;2022-07-17T03:58:42;102734.47;;;18.50;50.23
70248;BME280;57641;51.416;5.506;2022-07-17T04:01:08;102742.56;;;18.50;50.00
70248;BME280;57641;51.416;5.506;2022-07-17T04:03:33;102748.97;;;18.49;49.86
70248;BME280;57641;51.416;5.506;2022-07-17T04:05:59;102754.13;;;18.43;50.00
70248;BME280;57641;51.416;5.506;2022-07-17T04:08:24;102751.59;;;18.41;50.02
70248;BME280;57641;51.416;5.506;2022-07-17T04:10:50;102747.03;;;18.42;50.23
70248;BME280;57641;51.416;5.506;2022-07-17T04:13:16;102743.50;;;18.41;50.19
70248;BME280;57641;51.416;5.506;2022-07-17T04:15:42;102746.19;;;18.41;50.00
70248;BME280;57641;51.416;5.506;2022-07-17T04:18:28;102747.84;;;18.34;50.43
70248;BME280;57641;51.416;5.506;2022-07-17T04:20:56;102754.91;;;18.35;50.36
70248;BME280;57641;51.416;5.506;2022-07-17T04:23:22;102764.25;;;18.41;50.92
70248;BME280;57641;51.416;5.506;2022-07-17T04:25:47;102768.13;;;18.38;50.48
70248;BME280;57641;51.416;5.506;2022-07-17T04:28:13;102759.16;;;18.38;50.59
70248;BME280;57641;51.416;5.506;2022-07-17T04:30:39;102763.25;;;18.42;51.04
70248;BME280;57641;51.416;5.506;2022-07-17T04:33:05;102771.06;;;18.45;50.86
70248;BME280;57641;51.416;5.506;2022-07-17T04:35:30;102769.72;;;18.49;50.81
70248;BME280;57641;51.416;5.506;2022-07-17T04:37:56;102773.09;;;18.51;50.80
70248;BME280;57641;51.416;5.506;2022-07-17T04:40:22;102766.69;;;18.52;51.01
70248;BME280;57641;51.416;5.506;2022-07-17T04:42:47;102769.38;;;18.52;51.19
70248;BME280;57641;51.416;5.506;2022-07-17T04:45:13;102763.84;;;18.53;51.03
70248;BME280;57641;51.416;5.506;2022-07-17T04:47:39;102763.84;;;18.53;51.51
70248;BME280;57641;51.416;5.506;2022-07-17T04:50:05;102760.84;;;18.56;51.00
70248;BME280;57641;51.416;5.506;2022-07-17T04:52:31;102760.84;;;18.56;51.38
70248;BME280;57641;51.416;5.506;2022-07-17T04:54:56;102768.09;;;18.56;51.48
70248;BME280;57641;51.416;5.506;2022-07-17T04:57:22;102767.47;;;18.62;51.63
70248;BME280;57641;51.416;5.506;2022-07-17T04:59:47;102767.31;;;18.64;51.53
70248;BME280;57641;51.416;5.506;2022-07-17T05:02:13;102770.72;;;18.66;52.19
70248;BME280;57641;51.416;5.506;2022-07-17T05:04:38;102774.78;;;18.70;51.27
70248;BME280;57641;51.416;5.506;2022-07-17T05:07:04;102781.56;;;18.74;51.48
70248;BME280;57641;51.416;5.506;2022-07-17T05:09:29;102782.63;;;18.81;51.52
70248;BME280;57641;51.416;5.506;2022-07-17T05:11:54;102787.69;;;18.84;51.71
70248;BME280;57641;51.416;5.506;2022-07-17T05:14:20;102789.38;;;18.85;51.81
70248;BME280;57641;51.416;5.506;2022-07-17T05:16:45;102794.53;;;18.96;51.80
70248;BME280;57641;51.416;5.506;2022-07-17T05:19:11;102795.59;;;19.03;51.57
70248;BME280;57641;51.416;5.506;2022-07-17T05:21:36;102792.41;;;19.08;51.43
70248;BME280;57641;51.416;5.506;2022-07-17T05:24:02;102789.03;;;19.14;51.35
70248;BME280;57641;51.416;5.506;2022-07-17T05:26:28;102780.25;;;19.20;51.90
70248;BME280;57641;51.416;5.506;2022-07-17T05:28:53;102776.41;;;19.22;51.41
70248;BME280;57641;51.416;5.506;2022-07-17T05:31:18;102780.47;;;19.26;51.29
70248;BME280;57641;51.416;5.506;2022-07-17T05:33:44;102766.13;;;19.34;50.82
70248;BME280;57641;51.416;5.506;2022-07-17T05:36:10;102769.19;;;19.39;50.81
70248;BME280;57641;51.416;5.506;2022-07-17T05:38:36;102775.66;;;19.46;50.14
70248;BME280;57641;51.416;5.506;2022-07-17T05:41:03;102780.09;;;19.55;49.76
70248;BME280;57641;51.416;5.506;2022-07-17T05:43:28;102788.56;;;19.60;49.40
70248;BME280;57641;51.416;5.506;2022-07-17T05:45:55;102785.66;;;19.62;49.16
70248;BME280;57641;51.416;5.506;2022-07-17T05:48:21;102784.00;;;19.69;49.50
70248;BME280;57641;51.416;5.506;2022-07-17T05:50:46;102784.19;;;19.75;48.79
70248;BME280;57641;51.416;5.506;2022-07-17T05:53:12;102780.13;;;19.79;48.82
70248;BME280;57641;51.416;5.506;2022-07-17T05:55:37;102776.75;;;19.86;49.07
70248;BME280;57641;51.416;5.506;2022-07-17T05:58:03;102773.38;;;19.92;49.24
70248;BME280;57641;51.416;5.506;2022-07-17T06:00:29;102770.16;;;19.96;48.47
70248;BME280;57641;51.416;5.506;2022-07-17T06:02:54;102772.53;;;19.99;48.07
70248;BME280;57641;51.416;5.506;2022-07-17T06:05:20;102771.00;;;20.05;48.55
70248;BME280;57641;51.416;5.506;2022-07-17T06:07:45;102772.88;;;20.12;48.18
70248;BME280;57641;51.416;5.506;2022-07-17T06:10:11;102777.09;;;20.15;48.46
70248;BME280;57641;51.416;5.506;2022-07-17T06:12:37;102774.06;;;20.18;48.16
70248;BME280;57641;51.416;5.506;2022-07-17T06:15:02;102766.28;;;20.23;47.61
70248;BME280;57641;51.416;5.506;2022-07-17T06:17:28;102770.84;;;20.31;48.07
70248;BME280;57641;51.416;5.506;2022-07-17T06:19:54;102762.41;;;20.34;48.43
70248;BME280;57641;51.416;5.506;2022-07-17T06:22:19;102760.88;;;20.39;48.35
70248;BME280;57641;51.416;5.506;2022-07-17T06:24:45;102757.50;;;20.45;48.64
70248;BME280;57641;51.416;5.506;2022-07-17T06:27:11;102760.53;;;20.50;49.31
70248;BME280;57641;51.416;5.506;2022-07-17T06:29:37;102763.22;;;20.58;48.68
70248;BME280;57641;51.416;5.506;2022-07-17T06:32:03;102766.09;;;20.65;47.80
70248;BME280;57641;51.416;5.506;2022-07-17T06:34:28;102770.97;;;20.70;48.00
70248;BME280;57641;51.416;5.506;2022-07-17T06:36:54;102762.00;;;20.77;48.57
70248;BME280;57641;51.416;5.506;2022-07-17T06:39:19;102766.53;;;20.85;48.53
70248;BME280;57641;51.416;5.506;2022-07-17T06:41:44;102773.63;;;20.94;48.50
70248;BME280;57641;51.416;5.506;2022-07-17T06:44:10;102765.09;;;21.05;48.01
70248;BME280;57641;51.416;5.506;2022-07-17T06:46:35;102772.53;;;21.11;47.06
70248;BME280;57641;51.416;5.506;2022-07-17T06:49:01;102773.56;;;21.18;46.80
70248;BME280;57641;51.416;5.506;2022-07-17T06:51:26;102781.66;;;21.26;46.84
70248;BME280;57641;51.416;5.506;2022-07-17T06:53:52;102792.50;;;21.34;46.23
70248;BME280;57641;51.416;5.506;2022-07-17T06:56:17;102793.66;;;21.40;46.07
70248;BME280;57641;51.416;5.506;2022-07-17T06:58:42;102793.28;;;21.43;46.47
70248;BME280;57641;51.416;5.506;2022-07-17T07:01:08;102795.97;;;21.51;45.67
70248;BME280;57641;51.416;5.506;2022-07-17T07:03:33;102803.88;;;21.61;45.80
70248;BME280;57641;51.416;5.506;2022-07-17T07:05:59;102805.69;;;21.68;46.27
70248;BME280;57641;51.416;5.506;2022-07-17T07:08:25;102799.00;;;21.79;45.56
70248;BME280;57641;51.416;5.506;2022-07-17T07:10:51;102805.41;;;21.86;45.12
70248;BME280;57641;51.416;5.506;2022-07-17T07:13:16;102812.50;;;21.95;45.33
70248;BME280;57641;51.416;5.506;2022-07-17T07:15:41;102817.72;;;22.05;45.11
70248;BME280;57641;51.416;5.506;2022-07-17T07:18:08;102806.78;;;22.13;43.98
70248;BME280;57641;51.416;5.506;2022-07-17T07:20:33;102806.41;;;22.16;43.23
70248;BME280;57641;51.416;5.506;2022-07-17T07:22:59;102816.19;;;22.25;43.51
70248;BME280;57641;51.416;5.506;2022-07-17T07:25:24;102827.72;;;22.27;42.53
70248;BME280;57641;51.416;5.506;2022-07-17T07:27:50;102820.97;;;22.23;42.14
70248;BME280;57641;51.416;5.506;2022-07-17T07:30:15;102824.28;;;22.33;42.76
70248;BME280;57641;51.416;5.506;2022-07-17T07:32:40;102827.56;;;22.43;42.06
70248;BME280;57641;51.416;5.506;2022-07-17T07:35:07;102822.09;;;22.51;42.57
70248;BME280;57641;51.416;5.506;2022-07-17T07:37:33;102814.09;;;22.50;40.79
70248;BME280;57641;51.416;5.506;2022-07-17T07:39:59;102817.97;;;22.55;40.47
70248;BME280;57641;51.416;5.506;2022-07-17T07:42:25;102816.50;;;22.67;41.20
70248;BME280;57641;51.416;5.506;2022-07-17T07:44:51;102807.81;;;22.72;40.50
70248;BME280;57641;51.416;5.506;2022-07-17T07:47:17;102804.81;;;22.82;40.52
70248;BME280;57641;51.416;5.506;2022-07-17T07:49:43;102814.09;;;22.87;40.21
70248;BME280;57641;51.416;5.506;2022-07-17T07:52:08;102806.22;;;22.92;39.48
70248;BME280;57641;51.416;5.506;2022-07-17T07:54:34;102811.75;;;22.99;39.73
70248;BME280;57641;51.416;5.506;2022-07-17T07:57:00;102816.47;;;23.05;38.95
70248;BME280;57641;51.416;5.506;2022-07-17T07:59:25;102811.38;;;23.02;39.54
70248;BME280;57641;51.416;5.506;2022-07-17T08:01:51;102819.53;;;23.02;39.58
70248;BME280;57641;51.416;5.506;2022-07-17T08:04:18;102819.91;;;23.13;39.10
70248;BME280;57641;51.416;5.506;2022-07-17T08:06:43;102810.63;;;23.23;39.06
70248;BME280;57641;51.416;5.506;2022-07-17T08:09:09;102818.47;;;23.32;39.30
70248;BME280;57641;51.416;5.506;2022-07-17T08:11:34;102819.59;;;23.38;38.91
70248;BME280;57641;51.416;5.506;2022-07-17T08:14:00;102806.09;;;23.44;38.74
70248;BME280;57641;51.416;5.506;2022-07-17T08:16:25;102805.63;;;23.55;38.66
70248;BME280;57641;51.416;5.506;2022-07-17T08:18:50;102814.91;;;23.61;38.21
70248;BME280;57641;51.416;5.506;2022-07-17T08:21:16;102816.69;;;23.69;38.22
70248;BME280;57641;51.416;5.506;2022-07-17T08:23:42;102819.84;;;23.72;37.80
70248;BME280;57641;51.416;5.506;2022-07-17T08:26:07;102824.53;;;23.78;37.69
70248;BME280;57641;51.416;5.506;2022-07-17T08:28:32;102826.69;;;23.83;37.61
70248;BME280;57641;51.416;5.506;2022-07-17T08:30:58;102815.88;;;23.89;37.72
70248;BME280;57641;51.416;5.506;2022-07-17T08:33:23;102817.16;;;23.93;37.19
70248;BME280;57641;51.416;5.506;2022-07-17T08:35:49;102813.44;;;24.01;37.03
70248;BME280;57641;51.416;5.506;2022-07-17T08:38:14;102812.41;;;24.02;35.98
70248;BME280;57641;51.416;5.506;2022-07-17T08:40:40;102808.47;;;24.05;36.79
70248;BME280;57641;51.416;5.506;2022-07-17T08:43:07;102819.41;;;24.11;37.08
70248;BME280;57641;51.416;5.506;2022-07-17T08:45:34;102817.03;;;24.23;36.93
70248;BME280;57641;51.416;5.506;2022-07-17T08:47:59;102817.88;;;24.23;35.61
70248;BME280;57641;51.416;5.506;2022-07-17T08:50:34;102811.25;;;24.32;35.78
70248;BME280;57641;51.416;5.506;2022-07-17T08:53:01;102801.16;;;24.26;35.42
70248;BME280;57641;51.416;5.506;2022-07-17T08:55:28;102812.56;;;24.36;35.55
70248;BME280;57641;51.416;5.506;2022-07-17T08:57:54;102805.72;;;24.47;35.78
70248;BME280;57641;51.416;5.506;2022-07-17T09:00:22;102804.72;;;24.55;36.00
70248;BME280;57641;51.416;5.506;2022-07-17T09:03:01;102810.25;;;24.61;35.48
70248;BME280;57641;51.416;5.506;2022-07-17T09:05:48;102801.47;;;24.66;35.65
70248;BME280;57641;51.416;5.506;2022-07-17T09:08:19;102812.00;;;24.75;35.21
70248;BME280;57641;51.416;5.506;2022-07-17T09:10:47;102810.97;;;24.76;34.77
70248;BME280;57641;51.416;5.506;2022-07-17T09:13:18;102813.03;;;24.68;34.74
70248;BME280;57641;51.416;5.506;2022-07-17T09:15:46;102816.97;;;24.65;35.09
70248;BME280;57641;51.416;5.506;2022-07-17T09:18:12;102813.88;;;24.75;35.11
70248;BME280;57641;51.416;5.506;2022-07-17T09:20:48;102808.50;;;24.81;35.26
70248;BME280;57641;51.416;5.506;2022-07-17T09:23:14;102806.69;;;24.89;35.07
70248;BME280;57641;51.416;5.506;2022-07-17T09:25:44;102801.53;;;25.07;35.50
70248;BME280;57641;51.416;5.506;2022-07-17T09:28:12;102796.97;;;25.14;35.11
70248;BME280;57641;51.416;5.506;2022-07-17T09:30:44;102789.44;;;25.22;34.56
70248;BME280;57641;51.416;5.506;2022-07-17T09:33:19;102804.03;;;25.43;34.19
70248;BME280;57641;51.416;5.506;2022-07-17T09:41:07;102803.94;;;25.64;32.17
70248;BME280;57641;51.416;5.506;2022-07-17T09:43:43;102802.34;;;25.42;33.22
70248;BME280;57641;51.416;5.506;2022-07-17T09:46:23;102798.34;;;25.38;31.59
70248;BME280;57641;51.416;5.506;2022-07-17T09:48:52;102803.59;;;25.46;32.11
70248;BME280;57641;51.416;5.506;2022-07-17T09:51:20;102814.44;;;25.67;32.01
70248;BME280;57641;51.416;5.506;2022-07-17T09:53:49;102813.84;;;25.78;32.30
70248;BME280;57641;51.416;5.506;2022-07-17T09:56:17;102805.03;;;25.89;31.67
70248;BME280;57641;51.416;5.506;2022-07-17T09:58:45;102806.94;;;25.95;31.41
70248;BME280;57641;51.416;5.506;2022-07-17T10:01:14;102800.63;;;25.95;32.25
70248;BME280;57641;51.416;5.506;2022-07-17T10:03:42;102801.03;;;25.98;30.21
70248;BME280;57641;51.416;5.506;2022-07-17T10:06:09;102802.94;;;26.04;30.69
70248;BME280;57641;51.416;5.506;2022-07-17T10:08:36;102797.91;;;26.15;31.11
70248;BME280;57641;51.416;5.506;2022-07-17T10:11:09;102802.13;;;26.17;31.68
70248;BME280;57641;51.416;5.506;2022-07-17T10:13:39;102804.25;;;26.28;31.03
70248;BME280;57641;51.416;5.506;2022-07-17T10:16:07;102805.09;;;26.35;30.73
70248;BME280;57641;51.416;5.506;2022-07-17T10:18:46;102810.75;;;26.34;29.38
70248;BME280;57641;51.416;5.506;2022-07-17T10:21:14;102808.25;;;26.39;29.52
70248;BME280;57641;51.416;5.506;2022-07-17T10:24:27;102808.66;;;26.49;29.75
70248;BME280;57641;51.416;5.506;2022-07-17T10:26:33;102796.88;;;26.55;29.91
70248;BME280;57641;51.416;5.506;2022-07-17T10:28:59;102805.06;;;26.55;29.57
70248;BME280;57641;51.416;5.506;2022-07-17T10:31:27;102802.53;;;26.67;29.64
70248;BME280;57641;51.416;5.506;2022-07-17T10:33:57;102804.19;;;26.81;29.47
70248;BME280;57641;51.416;5.506;2022-07-17T10:36:33;102805.06;;;26.75;27.87
70248;BME280;57641;51.416;5.506;2022-07-17T10:41:41;102791.38;;;26.95;27.34
70248;BME280;57641;51.416;5.506;2022-07-17T10:44:07;102799.31;;;27.09;27.38
70248;BME280;57641;51.416;5.506;2022-07-17T10:46:33;102800.94;;;27.23;27.45
70248;BME280;57641;51.416;5.506;2022-07-17T10:49:03;102797.59;;;27.28;27.66
70248;BME280;57641;51.416;5.506;2022-07-17T10:51:30;102788.91;;;27.38;28.46
70248;BME280;57641;51.416;5.506;2022-07-17T10:53:57;102784.22;;;27.51;28.24
70248;BME280;57641;51.416;5.506;2022-07-17T10:56:26;102789.75;;;27.38;26.86
70248;BME280;57641;51.416;5.506;2022-07-17T10:58:52;102792.06;;;27.35;28.22
70248;BME280;57641;51.416;5.506;2022-07-17T11:01:21;102792.81;;;27.55;28.50
70248;BME280;57641;51.416;5.506;2022-07-17T11:03:49;102797.84;;;27.64;28.51
70248;BME280;57641;51.416;5.506;2022-07-17T11:08:53;102784.56;;;27.61;27.36
70248;BME280;57641;51.416;5.506;2022-07-17T11:11:34;102795.59;;;27.48;26.69
70248;BME280;57641;51.416;5.506;2022-07-17T11:14:24;102797.22;;;27.62;27.77
70248;BME280;57641;51.416;5.506;2022-07-17T11:16:56;102793.63;;;27.62;27.78
70248;BME280;57641;51.416;5.506;2022-07-17T11:19:33;102789.69;;;27.51;27.28
70248;BME280;57641;51.416;5.506;2022-07-17T11:22:02;102785.78;;;27.72;28.20
70248;BME280;57641;51.416;5.506;2022-07-17T11:24:46;102789.88;;;27.88;28.53
70248;BME280;57641;51.416;5.506;2022-07-17T11:27:25;102787.28;;;27.99;27.93
70248;BME280;57641;51.416;5.506;2022-07-17T11:29:58;102780.44;;;28.15;28.48
70248;BME280;57641;51.416;5.506;2022-07-17T11:32:35;102775.78;;;28.16;27.72
70248;BME280;57641;51.416;5.506;2022-07-17T11:35:15;102772.00;;;28.17;26.91
70248;BME280;57641;51.416;5.506;2022-07-17T11:37:41;102770.22;;;28.29;27.81
70248;BME280;57641;51.416;5.506;2022-07-17T11:40:08;102778.16;;;28.37;27.45
70248;BME280;57641;51.416;5.506;2022-07-17T11:42:36;102783.41;;;28.38;27.98
70248;BME280;57641;51.416;5.506;2022-07-17T11:45:03;102770.25;;;28.47;27.71
70248;BME280;57641;51.416;5.506;2022-07-17T11:47:29;102772.47;;;28.56;27.85
70248;BME280;57641;51.416;5.506;2022-07-17T11:50:14;102764.63;;;28.60;27.62
70248;BME280;57641;51.416;5.506;2022-07-17T11:52:48;102774.63;;;28.54;26.17
70248;BME280;57641;51.416;5.506;2022-07-17T11:55:17;102766.00;;;28.69;27.00
70248;BME280;57641;51.416;5.506;2022-07-17T11:57:48;102764.69;;;28.72;26.48
70248;BME280;57641;51.416;5.506;2022-07-17T12:00:18;102766.44;;;28.91;26.64
70248;BME280;57641;51.416;5.506;2022-07-17T12:02:45;102767.88;;;28.93;25.47
70248;BME280;57641;51.416;5.506;2022-07-17T12:05:11;102760.19;;;29.02;25.52
70248;BME280;57641;51.416;5.506;2022-07-17T12:10:16;102761.59;;;29.23;25.56
70248;BME280;57641;51.416;5.506;2022-07-17T12:13:05;102752.44;;;29.11;24.21
70248;BME280;57641;51.416;5.506;2022-07-17T12:15:38;102747.22;;;28.91;24.32
70248;BME280;57641;51.416;5.506;2022-07-17T12:18:05;102755.66;;;28.89;24.80
70248;BME280;57641;51.416;5.506;2022-07-17T12:20:46;102755.13;;;28.99;25.26
70248;BME280;57641;51.416;5.506;2022-07-17T12:23:32;102748.41;;;29.13;24.72
70248;BME280;57641;51.416;5.506;2022-07-17T12:28:34;102743.59;;;29.09;24.58
70248;BME280;57641;51.416;5.506;2022-07-17T12:31:00;102735.22;;;29.04;24.32
70248;BME280;57641;51.416;5.506;2022-07-17T12:33:26;102724.19;;;29.22;24.79
70248;BME280;57641;51.416;5.506;2022-07-17T12:35:51;102732.94;;;29.30;23.85
70248;BME280;57641;51.416;5.506;2022-07-17T12:38:17;102733.25;;;29.41;24.33
70248;BME280;57641;51.416;5.506;2022-07-17T12:40:42;102723.38;;;29.51;23.42
70248;BME280;57641;51.416;5.506;2022-07-17T12:43:08;102721.03;;;29.66;23.92
70248;BME280;57641;51.416;5.506;2022-07-17T12:45:34;102719.63;;;29.75;23.86
70248;BME280;57641;51.416;5.506;2022-07-17T12:48:00;102725.03;;;29.82;23.90
70248;BME280;57641;51.416;5.506;2022-07-17T12:50:25;102731.97;;;29.85;23.70
70248;BME280;57641;51.416;5.506;2022-07-17T12:52:51;102736.38;;;29.74;23.72
70248;BME280;57641;51.416;5.506;2022-07-17T12:55:17;102732.59;;;29.87;23.58
70248;BME280;57641;51.416;5.506;2022-07-17T12:57:42;102727.06;;;29.87;23.54
70248;BME280;57641;51.416;5.506;2022-07-17T13:00:09;102722.69;;;29.97;23.68
70248;BME280;57641;51.416;5.506;2022-07-17T13:02:35;102714.44;;;30.09;24.11
70248;BME280;57641;51.416;5.506;2022-07-17T13:05:00;102717.19;;;30.20;23.83
70248;BME280;57641;51.416;5.506;2022-07-17T13:07:26;102724.38;;;30.21;23.34